Waterport, New York
Current Conditions -  °F | °C
As of 7:54 AM on Thursday 30 Oct 2014 (Local Time) from KROC Reporting Station
Broken Clouds Broken Clouds  
Wind Chill: 36°   Ceiling: 7000
Heat Index: 41°   Visibility: 10mi
Dew Point: 37°   Wind: 7mph
Humidity: 86%   Direction: 270°W
Pressure: 30.04"   Gusts: NA
Location:  43.32°N, 78.25°W
Report Text: KROC 301154Z 27006KT 10SM FEW022 SCT033 BKN070 05/03 A3004 RMK AO2 SLP179 T00500028 10078 20050 53017
Loading
Personal Weather Stations






























Interactive Weather Map
Tropical Storm Tracking
New forecast layout! Learn more

10-Day Weather Forecast

Advertisements
Track Severe Weather on mobile